Time;durP1;ratioP1;P1;durP2;ratioP2;P2;SDS_P1;SDS_P2;PMS_P1;PMS_P2;Temp;Humidity;BMP_temperature;BMP_pressure;BME280_temperature;BME280_humidity;BME280_pressure;Samples;Min_cycle;Max_cycle;Signal;HPM_P1;HPM_P2
2023/04/20 00:00:10;;;;;;;9.02;3.08;;;7.40;99.90;;;;;;5017978;28;20065;-57
2023/04/20 00:02:38;;;;;;;;;;;7.50;99.90;;;;;;5016998;28;20104;-56
2023/04/20 00:05:08;;;;;;;7.95;2.78;;;7.50;99.90;;;;;;5017831;28;19959;-55
2023/04/20 00:07:34;;;;;;;8.77;2.53;;;7.60;99.90;;;;;;5017355;28;20513;-56
2023/04/20 00:10:02;;;;;;;10.55;3.05;;;7.60;99.90;;;;;;5017619;28;20124;-56
2023/04/20 00:12:28;;;;;;;7.32;2.70;;;7.60;99.90;;;;;;5037132;28;20702;-56
2023/04/20 00:14:54;;;;;;;7.63;2.92;;;7.70;99.90;;;;;;5037175;28;20053;-57
2023/04/20 00:17:20;;;;;;;7.93;2.67;;;7.70;99.90;;;;;;5037582;28;20052;-57
2023/04/20 00:19:46;;;;;;;9.07;3.05;;;7.70;99.90;;;;;;5037145;28;20050;-56
2023/04/20 00:22:12;;;;;;;6.88;2.72;;;7.70;99.90;;;;;;5037453;28;20045;-57
2023/04/20 00:24:37;;;;;;;8.07;2.47;;;7.80;99.90;;;;;;5039231;28;20088;-56
2023/04/20 00:27:03;;;;;;;7.63;2.80;;;7.80;99.90;;;;;;5041531;28;20096;-56
2023/04/20 00:29:29;;;;;;;5.72;2.35;;;7.60;99.90;;;;;;5041173;28;20042;-56
2023/04/20 00:31:54;;;;;;;6.13;2.20;;;7.80;99.90;;;;;;5041046;28;20043;-56
2023/04/20 00:34:20;;;;;;;7.43;2.35;;;7.80;99.90;;;;;;5041146;28;20042;-56
2023/04/20 00:36:46;;;;;;;7.55;2.50;;;7.70;99.90;;;;;;5040938;28;20038;-56
2023/04/20 00:39:11;;;;;;;8.00;2.55;;;7.80;99.90;;;;;;5040626;28;20105;-56
2023/04/20 00:41:37;;;;;;;7.03;2.35;;;7.70;99.90;;;;;;5041211;28;20056;-56
2023/04/20 00:44:06;;;;;;;7.75;2.10;;;7.70;99.90;;;;;;5040953;28;20065;-56
2023/04/20 00:46:32;;;;;;;7.82;2.30;;;7.70;99.90;;;;;;5040739;28;20483;-56
2023/04/20 00:48:59;;;;;;;7.35;2.28;;;7.70;99.90;;;;;;5058500;28;20079;-56
2023/04/20 00:51:24;;;;;;;7.88;2.72;;;7.60;99.90;;;;;;5060813;28;20044;-56
2023/04/20 00:53:50;;;;;;;8.35;2.20;;;7.60;99.90;;;;;;5060448;28;20208;-56
2023/04/20 00:56:16;;;;;;;6.60;2.38;;;7.60;99.90;;;;;;5060340;28;20116;-56
2023/04/20 00:58:42;;;;;;;8.20;2.50;;;7.60;99.90;;;;;;5061025;28;20037;-56
2023/04/20 01:01:09;;;;;;;7.30;2.40;;;7.50;99.90;;;;;;5060504;28;20424;-54
2023/04/20 01:03:35;;;;;;;8.73;2.45;;;7.50;99.90;;;;;;5060522;28;20128;-56
2023/04/20 01:06:01;;;;;;;9.63;2.60;;;7.50;99.90;;;;;;5060304;28;20073;-56
2023/04/20 01:08:27;;;;;;;9.48;2.47;;;7.50;99.90;;;;;;5060123;28;20048;-56
2023/04/20 01:10:56;;;;;;;10.45;2.47;;;7.50;99.90;;;;;;5059992;28;20060;-56
2023/04/20 01:13:22;;;;;;;8.43;2.30;;;7.40;99.90;;;;;;5060265;28;20057;-56
2023/04/20 01:15:49;;;;;;;7.15;2.42;;;7.50;99.90;;;;;;5060575;28;20041;-56
2023/04/20 01:18:17;;;;;;;7.40;2.28;;;7.40;99.90;;;;;;5060120;28;20103;-56
2023/04/20 01:20:44;;;;;;;7.05;2.28;;;7.40;99.90;;;;;;5059848;28;20049;-56
2023/04/20 01:23:09;;;;;;;8.65;2.65;;;7.40;99.90;;;;;;5060216;28;20818;-56
2023/04/20 01:25:35;;;;;;;9.77;2.30;;;7.30;99.90;;;;;;5060232;28;20064;-56
2023/04/20 01:28:01;;;;;;;8.45;2.45;;;7.30;99.90;;;;;;5059862;28;20138;-57
2023/04/20 01:30:27;;;;;;;8.32;2.50;;;7.40;99.90;;;;;;5059974;28;20035;-56
2023/04/20 01:32:53;;;;;;;6.95;2.25;;;7.40;99.90;;;;;;5060165;28;20045;-56
2023/04/20 01:35:18;;;;;;;6.85;2.20;;;7.40;99.90;;;;;;5059018;28;20053;-56
2023/04/20 01:37:44;;;;;;;7.45;2.22;;;7.30;99.90;;;;;;5059836;28;20073;-56
2023/04/20 01:40:12;;;;;;;8.93;2.55;;;7.30;99.90;;;;;;5059910;28;20516;-56
2023/04/20 01:42:38;;;;;;;10.27;2.72;;;7.30;99.90;;;;;;5059882;28;20099;-56
2023/04/20 01:45:07;;;;;;;8.02;2.35;;;7.40;99.90;;;;;;5059821;28;20400;-56
2023/04/20 01:47:34;;;;;;;8.27;2.40;;;7.30;99.90;;;;;;5038229;28;20084;-57
2023/04/20 01:50:00;;;;;;;9.18;2.40;;;7.30;99.90;;;;;;5039307;28;20056;-56
2023/04/20 01:52:25;;;;;;;10.85;2.58;;;7.30;99.90;;;;;;5039529;28;20038;-59
2023/04/20 01:54:51;;;;;;;7.95;2.30;;;7.20;99.90;;;;;;5039650;28;20049;-57
2023/04/20 01:57:17;;;;;;;6.03;2.40;;;7.20;99.90;;;;;;5039466;28;20045;-58
2023/04/20 01:59:42;;;;;;;7.68;2.17;;;7.20;99.90;;;;;;5039510;28;20054;-55
2023/04/20 02:02:08;;;;;;;6.85;2.50;;;7.10;99.90;;;;;;5039297;28;20517;-56
2023/04/20 02:04:34;;;;;;;10.60;2.78;;;7.10;99.90;;;;;;5039159;28;20072;-56
2023/04/20 02:06:59;;;;;;;7.43;2.35;;;7.00;99.90;;;;;;5039522;28;20069;-56
2023/04/20 02:09:25;;;;;;;8.35;2.60;;;7.00;99.90;;;;;;5021272;28;20600;-56
2023/04/20 02:11:51;;;;;;;11.43;2.70;;;7.10;99.90;;;;;;5039255;28;20132;-56
2023/04/20 02:14:17;;;;;;;7.63;2.58;;;7.10;99.90;;;;;;5039450;28;20053;-56
2023/04/20 02:16:42;;;;;;;7.28;2.45;;;7.00;99.90;;;;;;5039059;28;20753;-54
2023/04/20 02:19:08;;;;;;;8.73;2.58;;;7.00;99.90;;;;;;5039023;28;20068;-56
2023/04/20 02:21:34;;;;;;;7.60;2.50;;;7.00;99.90;;;;;;5039229;28;20041;-56
2023/04/20 02:24:00;;;;;;;8.80;2.80;;;7.10;99.90;;;;;;5039227;28;20047;-56
2023/04/20 02:26:26;;;;;;;8.43;2.45;;;7.00;99.90;;;;;;5039193;28;20045;-56
2023/04/20 02:28:52;;;;;;;9.80;2.53;;;7.10;99.90;;;;;;5039210;28;20617;-56
2023/04/20 02:31:17;;;;;;;10.20;2.40;;;7.10;99.90;;;;;;5038959;28;20080;-56
2023/04/20 02:33:43;;;;;;;8.80;2.50;;;7.10;99.90;;;;;;5038648;28;20085;-54
2023/04/20 02:36:09;;;;;;;9.15;2.88;;;7.20;99.90;;;;;;5038718;28;20184;-56
2023/04/20 02:38:36;;;;;;;8.93;3.10;;;7.20;99.90;;;;;;5038670;28;20049;-56
2023/04/20 02:41:02;;;;;;;8.40;2.65;;;7.20;99.90;;;;;;5038632;28;20049;-56
2023/04/20 02:43:28;;;;;;;7.93;2.63;;;7.20;99.90;;;;;;5038823;28;20044;-56
2023/04/20 02:45:53;;;;;;;10.00;2.60;;;7.20;99.90;;;;;;5038913;28;20459;-56
2023/04/20 02:48:19;;;;;;;11.55;2.90;;;7.30;99.90;;;;;;5049826;28;20052;-56
2023/04/20 02:50:45;;;;;;;10.13;2.83;;;7.40;99.90;;;;;;5058580;28;20040;-56
2023/04/20 02:53:10;;;;;;;9.25;2.70;;;7.30;99.90;;;;;;5058313;28;20053;-56
2023/04/20 02:55:36;;;;;;;9.25;3.00;;;7.30;99.90;;;;;;5058654;28;20465;-56
2023/04/20 02:58:02;;;;;;;13.90;3.25;;;7.30;99.90;;;;;;5058215;28;20489;-56
2023/04/20 03:00:27;;;;;;;12.95;2.92;;;7.40;99.90;;;;;;5058245;28;20484;-56
2023/04/20 03:02:53;;;;;;;8.32;3.00;;;7.50;99.90;;;;;;5058321;28;20037;-56
2023/04/20 03:05:18;;;;;;;7.65;2.60;;;7.50;99.90;;;;;;5058228;28;20045;-56
2023/04/20 03:07:44;;;;;;;9.05;2.60;;;7.50;99.90;;;;;;5058052;28;20045;-56
2023/04/20 03:10:10;;;;;;;10.23;2.92;;;7.50;99.90;;;;;;5058189;28;20048;-57
2023/04/20 03:12:36;;;;;;;10.10;2.67;;;7.50;99.90;;;;;;5058053;28;20044;-56
2023/04/20 03:15:05;;;;;;;9.88;2.70;;;7.60;99.90;;;;;;5057786;28;20149;-56
2023/04/20 03:17:30;;;;;;;10.13;3.33;;;7.60;99.90;;;;;;5057734;28;20051;-56
2023/04/20 03:19:56;;;;;;;11.70;3.20;;;7.60;99.90;;;;;;5058234;28;20045;-56
2023/04/20 03:22:22;;;;;;;9.02;3.22;;;7.60;99.90;;;;;;5057984;28;20041;-56
2023/04/20 03:24:48;;;;;;;8.35;2.42;;;7.60;99.90;;;;;;5058009;28;20044;-56
2023/04/20 03:27:13;;;;;;;8.50;2.88;;;7.60;99.90;;;;;;5057904;28;20051;-56
2023/04/20 03:29:39;;;;;;;9.40;2.67;;;7.60;99.90;;;;;;5057788;28;20041;-56
2023/04/20 03:32:05;;;;;;;10.32;2.90;;;7.60;99.90;;;;;;5057396;28;20043;-56
2023/04/20 03:34:30;;;;;;;10.23;3.13;;;7.70;99.90;;;;;;5057792;28;20041;-56
2023/04/20 03:36:56;;;;;;;8.20;2.80;;;7.70;99.90;;;;;;5040015;28;20047;-56
2023/04/20 03:39:22;;;;;;;8.70;2.85;;;7.70;99.90;;;;;;5057474;28;20077;-56
2023/04/20 03:41:47;;;;;;;8.75;2.65;;;7.70;99.90;;;;;;5057721;28;20549;-55
2023/04/20 03:44:14;;;;;;;11.52;2.78;;;7.80;99.90;;;;;;5057720;28;20099;-56
2023/04/20 03:46:40;;;;;;;8.88;2.50;;;7.80;99.90;;;;;;5057310;28;20124;-56
2023/04/20 03:49:05;;;;;;;10.55;2.70;;;8.00;99.90;;;;;;5037999;28;20128;-56
2023/04/20 03:51:31;;;;;;;6.72;2.20;;;7.90;99.90;;;;;;5037713;28;20041;-57
2023/04/20 03:53:57;;;;;;;6.57;2.40;;;7.90;99.90;;;;;;5037566;28;20044;-56
2023/04/20 03:56:25;;;;;;;8.15;2.95;;;7.90;99.90;;;;;;5037616;28;20080;-56
2023/04/20 03:58:51;;;;;;;7.63;2.58;;;8.00;99.90;;;;;;5037318;28;20046;-56
2023/04/20 04:01:17;;;;;;;12.05;2.70;;;8.00;99.90;;;;;;5037583;28;20046;-56
2023/04/20 04:03:42;;;;;;;6.80;2.13;;;8.00;99.90;;;;;;5037324;28;20041;-58
2023/04/20 04:06:09;;;;;;;8.60;2.47;;;8.00;99.90;;;;;;5037265;28;20041;-56
2023/04/20 04:08:35;;;;;;;9.52;2.63;;;8.00;99.90;;;;;;5037177;28;20103;-56
2023/04/20 04:11:01;;;;;;;8.00;2.05;;;8.00;99.90;;;;;;5037073;28;20057;-56
2023/04/20 04:13:26;;;;;;;7.05;2.70;;;8.00;99.90;;;;;;5037378;28;20083;-56
2023/04/20 04:15:52;;;;;;;7.55;2.05;;;8.00;99.90;;;;;;5037337;28;20104;-56
2023/04/20 04:18:19;;;;;;;6.57;2.10;;;8.00;99.90;;;;;;5019551;28;20104;-56
2023/04/20 04:20:44;;;;;;;6.20;2.00;;;8.00;99.90;;;;;;5037182;28;20033;-56
2023/04/20 04:23:10;;;;;;;5.63;2.22;;;8.00;99.90;;;;;;5037282;28;20132;-56
2023/04/20 04:25:39;;;;;;;8.45;2.55;;;8.10;99.90;;;;;;5037348;28;20041;-56
2023/04/20 04:28:06;;;;;;;7.15;1.90;;;8.00;99.90;;;;;;5019245;28;20053;-56
2023/04/20 04:30:31;;;;;;;7.25;2.15;;;8.00;99.90;;;;;;5036997;28;20060;-56
2023/04/20 04:32:58;;;;;;;5.95;2.10;;;8.00;99.90;;;;;;5037505;28;20038;-56
2023/04/20 04:35:25;;;;;;;8.40;2.17;;;8.00;99.90;;;;;;5037399;28;20075;-56
2023/04/20 04:37:54;;;;;;;5.82;2.03;;;8.00;99.90;;;;;;5036990;28;20045;-55
2023/04/20 04:40:19;;;;;;;6.22;1.73;;;8.00;99.90;;;;;;5037256;28;20072;-59
2023/04/20 04:42:47;;;;;;;8.25;2.15;;;7.90;99.90;;;;;;5037276;28;20108;-56
2023/04/20 04:45:13;;;;;;;9.35;2.22;;;8.00;99.90;;;;;;5037068;28;20714;-55
2023/04/20 04:47:42;;;;;;;8.32;2.25;;;8.00;99.90;;;;;;5036901;28;20073;-56
2023/04/20 04:50:09;;;;;;;7.65;1.92;;;7.90;99.90;;;;;;5037184;28;20042;-55
2023/04/20 04:52:35;;;;;;;7.40;2.03;;;8.00;99.90;;;;;;5037124;28;20051;-55
2023/04/20 04:55:01;;;;;;;7.40;2.30;;;8.00;99.90;;;;;;5037099;28;20080;-56
2023/04/20 04:57:27;;;;;;;6.90;2.20;;;8.00;99.90;;;;;;5036778;28;20400;-56
2023/04/20 04:59:53;;;;;;;7.78;2.20;;;8.00;99.90;;;;;;5036896;28;20121;-56
2023/04/20 05:02:19;;;;;;;7.32;2.03;;;8.00;99.90;;;;;;5036846;28;20045;-56
2023/04/20 05:04:45;;;;;;;5.18;1.70;;;8.00;99.90;;;;;;5036887;28;20121;-56
2023/04/20 05:07:12;;;;;;;6.28;2.10;;;8.00;99.90;;;;;;5036983;28;20133;-58
2023/04/20 05:09:38;;;;;;;5.38;1.80;;;8.00;99.90;;;;;;5036677;28;20060;-56
2023/04/20 05:12:05;;;;;;;7.60;2.00;;;8.00;99.90;;;;;;5021232;28;20054;-57
2023/04/20 05:14:31;;;;;;;6.85;2.20;;;8.00;99.90;;;;;;5040227;28;20061;-56
2023/04/20 05:17:00;;;;;;;7.13;2.53;;;8.00;99.90;;;;;;5040567;28;20045;-57
2023/04/20 05:19:26;;;;;;;4.82;1.80;;;8.00;99.90;;;;;;5037584;28;20131;-56
2023/04/20 05:21:52;;;;;;;5.50;2.35;;;8.00;99.90;;;;;;5036837;28;20397;-56
2023/04/20 05:24:18;;;;;;;6.10;1.88;;;8.00;99.90;;;;;;5019120;28;20077;-56
2023/04/20 05:26:47;;;;;;;5.80;2.08;;;8.00;99.90;;;;;;5036871;28;20065;-56
2023/04/20 05:29:15;;;;;;;6.50;2.03;;;8.00;99.90;;;;;;5036479;28;20049;-56
2023/04/20 05:31:41;;;;;;;6.53;2.10;;;8.00;99.90;;;;;;5036348;28;20034;-56
2023/04/20 05:34:07;;;;;;;9.48;2.35;;;8.00;99.90;;;;;;5036513;28;20052;-57
2023/04/20 05:36:32;;;;;;;9.82;2.90;;;8.00;99.90;;;;;;5036859;28;20128;-56
2023/04/20 05:38:58;;;;;;;9.90;2.33;;;8.00;99.90;;;;;;5036252;28;20052;-56
2023/04/20 05:41:26;;;;;;;6.32;2.38;;;8.00;99.90;;;;;;5036787;28;20087;-57
2023/04/20 05:43:55;;;;;;;7.18;2.08;;;8.00;99.90;;;;;;5036300;28;20069;-56
2023/04/20 05:46:22;;;;;;;8.77;2.22;;;8.00;99.90;;;;;;5018673;28;20049;-56
2023/04/20 05:48:48;;;;;;;7.47;2.00;;;8.00;99.90;;;;;;5052720;28;20059;-54
2023/04/20 05:51:14;;;;;;;7.72;2.25;;;8.00;99.90;;;;;;5056303;28;20053;-56
2023/04/20 05:53:40;;;;;;;5.85;1.90;;;8.00;99.90;;;;;;5056140;28;20045;-57
2023/04/20 05:56:06;;;;;;;7.28;2.33;;;8.10;99.90;;;;;;5052095;28;20057;-56
2023/04/20 05:58:34;;;;;;;6.25;2.08;;;8.10;99.90;;;;;;5035838;28;20038;-57
2023/04/20 06:01:02;;;;;;;7.80;2.40;;;8.00;99.90;;;;;;5017959;28;20064;-56
2023/04/20 06:03:27;;;;;;;7.43;2.03;;;8.00;99.90;;;;;;5036129;28;20053;-56
2023/04/20 06:05:53;;;;;;;7.03;2.10;;;8.00;99.90;;;;;;5036111;28;20046;-58
2023/04/20 06:08:19;;;;;;;5.55;2.20;;;8.00;99.90;;;;;;5035314;28;20049;-57
2023/04/20 06:10:44;;;;;;;6.30;2.20;;;7.90;99.90;;;;;;5035889;28;20176;-57
2023/04/20 06:13:10;;;;;;;6.70;2.03;;;7.90;99.90;;;;;;5035600;28;20053;-56
2023/04/20 06:15:36;;;;;;;7.53;2.17;;;7.80;99.90;;;;;;5036415;28;20042;-56
2023/04/20 06:18:02;;;;;;;8.90;2.15;;;7.90;99.90;;;;;;5037954;28;20045;-56
2023/04/20 06:20:28;;;;;;;6.57;2.03;;;7.70;99.90;;;;;;5037450;28;20049;-55
2023/04/20 06:22:54;;;;;;;8.40;2.13;;;7.70;99.90;;;;;;5038353;28;20261;-57
2023/04/20 06:25:20;;;;;;;8.10;2.10;;;7.70;99.90;;;;;;5038984;28;20049;-58
2023/04/20 06:27:46;;;;;;;7.18;2.50;;;7.60;99.90;;;;;;5038945;28;20067;-58
2023/04/20 06:30:12;;;;;;;9.07;2.53;;;7.60;99.90;;;;;;5021016;28;20037;-56
2023/04/20 06:32:38;;;;;;;8.20;2.17;;;7.50;99.90;;;;;;5039106;28;20047;-57
2023/04/20 06:35:07;;;;;;;8.52;2.22;;;7.50;99.90;;;;;;5038851;28;20083;-56
2023/04/20 06:37:37;;;;;;;8.80;1.80;;;7.50;99.90;;;;;;5038689;28;20037;-56
2023/04/20 06:40:07;;;;;;;7.78;2.72;;;7.50;99.90;;;;;;5021036;28;20057;-56
2023/04/20 06:42:33;;;;;;;11.25;2.60;;;7.40;99.90;;;;;;5038891;28;20041;-56
2023/04/20 06:44:59;;;;;;;8.25;2.88;;;7.40;99.90;;;;;;5038703;28;20045;-55
2023/04/20 06:47:30;;;;;;;7.55;2.42;;;7.40;99.90;;;;;;5038583;28;20037;-57
2023/04/20 06:50:00;;;;;;;8.13;2.90;;;7.30;99.90;;;;;;5045101;28;20048;-57
2023/04/20 06:52:27;;;;;;;7.88;2.80;;;7.20;99.90;;;;;;5038657;28;20295;-58
2023/04/20 06:54:53;;;;;;;10.00;2.85;;;7.20;99.90;;;;;;5020868;28;20595;-58
2023/04/20 06:57:18;;;;;;;9.50;3.13;;;7.10;99.90;;;;;;5038394;28;20056;-58
2023/04/20 06:59:44;;;;;;;7.03;2.50;;;7.00;99.90;;;;;;5038664;28;20041;-58
2023/04/20 07:02:10;;;;;;;9.90;2.72;;;7.00;99.90;;;;;;5038059;28;20433;-57
2023/04/20 07:04:35;;;;;;;7.80;3.00;;;6.90;99.90;;;;;;5038115;28;20073;-58
2023/04/20 07:07:01;;;;;;;7.90;2.95;;;6.90;99.90;;;;;;5020643;28;20106;-57
2023/04/20 07:09:27;;;;;;;9.10;3.15;;;6.90;99.90;;;;;;5037985;28;20124;-57
2023/04/20 07:11:55;;;;;;;8.80;2.97;;;6.80;99.90;;;;;;5038256;28;20104;-57
2023/04/20 07:14:20;;;;;;;11.90;3.22;;;6.90;99.90;;;;;;5038308;28;20107;-57
2023/04/20 07:16:46;;;;;;;6.78;2.90;;;6.80;99.90;;;;;;5038019;28;20037;-56
2023/04/20 07:19:12;;;;;;;6.18;2.78;;;6.80;99.90;;;;;;5037840;28;20076;-57
2023/04/20 07:21:37;;;;;;;8.52;3.50;;;6.90;99.90;;;;;;5038249;28;21105;-58
2023/04/20 07:24:03;;;;;;;10.10;3.20;;;6.90;99.90;;;;;;5038216;28;20872;-58
2023/04/20 07:26:29;;;;;;;7.38;3.10;;;7.00;99.90;;;;;;5020352;28;20052;-58
2023/04/20 07:28:54;;;;;;;8.00;2.90;;;6.90;99.90;;;;;;5038004;28;20485;-57
2023/04/20 07:31:20;;;;;;;9.05;2.95;;;6.90;99.90;;;;;;5037736;28;20509;-57
2023/04/20 07:33:46;;;;;;;7.85;2.78;;;6.90;99.90;;;;;;5037387;28;20056;-57
2023/04/20 07:36:11;;;;;;;8.30;3.30;;;6.90;99.90;;;;;;5037715;28;20061;-57
2023/04/20 07:38:37;;;;;;;7.55;3.20;;;6.90;99.90;;;;;;5037518;28;20045;-57
2023/04/20 07:41:03;;;;;;;7.05;2.90;;;6.80;99.90;;;;;;5037753;28;20048;-57
2023/04/20 07:43:28;;;;;;;6.97;2.90;;;6.80;99.90;;;;;;5037785;28;20120;-57
2023/04/20 07:45:54;;;;;;;7.43;3.35;;;6.80;99.90;;;;;;5037782;28;20099;-57
2023/04/20 07:48:20;;;;;;;8.57;3.25;;;6.90;99.90;;;;;;5039676;28;20049;-57
2023/04/20 07:50:46;;;;;;;6.13;2.92;;;6.80;99.90;;;;;;5054491;28;20401;-56
2023/04/20 07:53:12;;;;;;;8.63;3.33;;;6.80;99.90;;;;;;5057265;28;20056;-57
2023/04/20 07:55:37;;;;;;;8.38;3.08;;;6.90;99.90;;;;;;5057752;28;20049;-58
2023/04/20 07:58:03;;;;;;;9.52;3.20;;;7.10;99.90;;;;;;5057122;28;20071;-57
2023/04/20 08:00:29;;;;;;;7.63;3.30;;;7.20;99.90;;;;;;5057415;28;20037;-57
2023/04/20 08:02:54;;;;;;;8.35;3.85;;;7.50;99.90;;;;;;5057346;28;20076;-57
2023/04/20 08:05:21;;;;;;;8.95;3.25;;;7.60;99.90;;;;;;5057629;28;20374;-57
2023/04/20 08:07:46;;;;;;;8.68;3.22;;;7.60;99.90;;;;;;5056913;28;20057;-57
2023/04/20 08:10:12;;;;;;;7.05;3.33;;;7.60;99.90;;;;;;5038997;28;20071;-58
2023/04/20 08:12:39;;;;;;;7.05;2.95;;;7.70;99.90;;;;;;5057209;28;20052;-57
2023/04/20 08:15:05;;;;;;;7.65;3.40;;;7.70;99.90;;;;;;5053904;28;20049;-57
2023/04/20 08:17:32;;;;;;;10.63;3.20;;;7.60;99.90;;;;;;5053720;28;20048;-57
2023/04/20 08:19:57;;;;;;;8.65;3.40;;;7.50;99.90;;;;;;5053270;28;20057;-57
2023/04/20 08:22:26;;;;;;;10.25;3.63;;;7.50;99.90;;;;;;5054144;28;20040;-57
2023/04/20 08:24:52;;;;;;;9.68;3.08;;;7.60;99.90;;;;;;5055423;28;20146;-57
2023/04/20 08:27:17;;;;;;;6.47;2.92;;;7.50;99.90;;;;;;5056615;28;20056;-57
2023/04/20 08:29:43;;;;;;;8.15;3.20;;;7.60;99.90;;;;;;5057066;28;20044;-55
2023/04/20 08:32:11;;;;;;;7.28;3.17;;;7.60;99.90;;;;;;5056881;28;20052;-57
2023/04/20 08:34:37;;;;;;;8.25;3.72;;;7.70;99.90;;;;;;5057206;28;20048;-57
2023/04/20 08:37:03;;;;;;;8.18;3.47;;;7.60;99.90;;;;;;5057308;28;20099;-57
2023/04/20 08:39:29;;;;;;;7.05;3.70;;;7.70;99.90;;;;;;5057097;28;20040;-56
2023/04/20 08:41:56;;;;;;;7.72;3.30;;;7.80;99.90;;;;;;5056975;28;20056;-56
2023/04/20 08:44:22;;;;;;;8.68;3.20;;;7.70;99.90;;;;;;5057188;28;20539;-57
2023/04/20 08:46:49;;;;;;;8.88;3.20;;;7.70;99.90;;;;;;5060456;28;20048;-56
2023/04/20 08:49:17;;;;;;;9.68;3.47;;;7.70;99.90;;;;;;5040549;28;20038;-57
2023/04/20 08:51:44;;;;;;;7.82;3.25;;;7.60;99.90;;;;;;5040826;28;20041;-57
2023/04/20 08:54:11;;;;;;;6.65;2.95;;;7.60;99.90;;;;;;5041115;28;20076;-57
2023/04/20 08:56:42;;;;;;;8.30;3.72;;;7.60;99.90;;;;;;5040998;28;20045;-57
2023/04/20 08:59:09;;;;;;;8.02;3.50;;;7.50;99.90;;;;;;5040742;28;20053;-57
2023/04/20 09:01:40;;;;;;;7.85;3.95;;;7.40;99.90;;;;;;5040727;28;20081;-57
2023/04/20 09:04:19;;;;;;;9.75;3.42;;;7.40;99.90;;;;;;5023179;28;20053;-58
2023/04/20 09:06:49;;;;;;;8.77;3.40;;;7.40;99.90;;;;;;5040729;28;20045;-58
2023/04/20 09:09:15;;;;;;;8.77;3.38;;;7.40;99.90;;;;;;5040230;28;20080;-58
2023/04/20 09:11:41;;;;;;;9.25;3.88;;;7.40;99.90;;;;;;5040360;28;20584;-57
2023/04/20 09:14:11;;;;;;;10.60;3.58;;;7.40;99.90;;;;;;5040586;28;20041;-58
2023/04/20 09:16:46;;;;;;;9.00;3.30;;;7.50;99.90;;;;;;5040381;28;20053;-57
2023/04/20 09:19:13;;;;;;;10.25;3.75;;;7.50;99.90;;;;;;5040377;28;20046;-57
2023/04/20 09:21:51;;;;;;;7.78;3.72;;;7.70;99.90;;;;;;5040517;28;20095;-57
2023/04/20 09:24:19;;;;;;;8.52;3.38;;;7.80;99.90;;;;;;5022502;28;20485;-57
2023/04/20 09:26:46;;;;;;;10.27;3.72;;;7.80;99.90;;;;;;5006480;28;20049;-57
2023/04/20 09:29:20;;;;;;;10.90;3.78;;;7.90;99.90;;;;;;5021591;28;20076;-57
2023/04/20 09:31:46;;;;;;;6.75;3.45;;;8.00;99.90;;;;;;5039704;28;20139;-57
2023/04/20 09:34:12;;;;;;;8.30;3.88;;;8.10;99.90;;;;;;5039721;28;20045;-56
2023/04/20 09:36:43;;;;;;;8.07;3.78;;;8.10;99.90;;;;;;5021769;28;20045;-56
2023/04/20 09:39:11;;;;;;;8.13;3.58;;;8.10;99.90;;;;;;5038929;28;20045;-56
2023/04/20 09:41:38;;;;;;;8.23;3.50;;;8.10;99.90;;;;;;5039611;28;20179;-57
2023/04/20 09:44:04;;;;;;;8.75;4.25;;;8.20;99.90;;;;;;5022108;28;20033;-57
2023/04/20 09:46:33;;;;;;;9.23;4.10;;;8.20;99.90;;;;;;5039955;28;20104;-57
2023/04/20 09:48:59;;;;;;;6.82;3.97;;;8.30;99.90;;;;;;5044533;28;20033;-57
2023/04/20 09:51:27;;;;;;;9.52;4.03;;;8.40;99.90;;;;;;5058366;28;20052;-57
2023/04/20 09:53:58;;;;;;;8.57;4.40;;;8.50;99.90;;;;;;5032689;28;20045;-57
2023/04/20 09:56:25;;;;;;;10.27;4.32;;;8.60;99.90;;;;;;5046486;28;20025;-56
2023/04/20 09:58:51;;;;;;;7.50;3.95;;;8.70;99.90;;;;;;5041715;28;20057;-57
2023/04/20 10:01:18;;;;;;;8.55;3.65;;;8.70;99.90;;;;;;5023188;28;20064;-57
2023/04/20 10:03:44;;;;;;;8.73;4.30;;;8.80;99.90;;;;;;5055735;28;20067;-55
2023/04/20 10:06:19;;;;;;;10.38;4.10;;;8.80;99.90;;;;;;5055636;28;20050;-57
2023/04/20 10:08:44;;;;;;;9.35;3.65;;;8.80;99.90;;;;;;5037252;28;20040;-57
2023/04/20 10:11:10;;;;;;;8.23;3.67;;;8.70;99.90;;;;;;5038629;28;20033;-56
2023/04/20 10:13:36;;;;;;;12.52;4.57;;;8.70;99.90;;;;;;5038476;28;20133;-57
2023/04/20 10:16:02;;;;;;;10.30;4.40;;;8.60;99.90;;;;;;5037928;28;20068;-57
2023/04/20 10:18:28;;;;;;;9.70;4.13;;;8.70;99.90;;;;;;5038388;28;20041;-56
2023/04/20 10:21:08;;;;;;;8.88;4.03;;;8.80;99.90;;;;;;5038556;28;20042;-56
2023/04/20 10:23:33;;;;;;;9.23;4.50;;;9.00;99.90;;;;;;5019146;28;20045;-57
2023/04/20 10:26:00;;;;;;;10.55;4.82;;;9.20;99.90;;;;;;5021321;28;20033;-58
2023/04/20 10:28:40;;;;;;;10.63;3.90;;;9.30;99.90;;;;;;5038938;28;20041;-57
2023/04/20 10:31:07;;;;;;;10.60;4.20;;;9.30;99.90;;;;;;5038150;28;20041;-57
2023/04/20 10:33:33;;;;;;;9.93;5.00;;;9.30;99.90;;;;;;5038630;28;20046;-57
2023/04/20 10:35:59;;;;;;;8.88;4.13;;;9.10;99.90;;;;;;5038796;28;20366;-56
2023/04/20 10:38:34;;;;;;;12.38;4.40;;;9.00;99.90;;;;;;5038400;28;20060;-57
2023/04/20 10:41:11;;;;;;;9.10;4.20;;;8.90;99.90;;;;;;5038822;28;20049;-56
2023/04/20 10:43:42;;;;;;;9.43;4.32;;;8.90;99.90;;;;;;5038659;28;20121;-56
2023/04/20 10:46:18;;;;;;;8.95;4.85;;;8.90;99.90;;;;;;5037792;28;20058;-57
2023/04/20 10:48:57;;;;;;;9.40;4.68;;;8.80;99.90;;;;;;5038127;28;20589;-57
2023/04/20 10:51:24;;;;;;;7.78;4.53;;;8.80;99.90;;;;;;5058295;28;20194;-57
2023/04/20 10:54:04;;;;;;;11.27;4.50;;;8.70;99.90;;;;;;5058052;28;20209;-57
2023/04/20 10:56:56;;;;;;;9.27;4.22;;;8.60;99.90;;;;;;5040283;28;20525;-56
2023/04/20 10:59:23;;;;;;;11.23;4.43;;;8.60;99.90;;;;;;5055224;28;20053;-57
2023/04/20 11:01:50;;;;;;;9.38;4.60;;;8.70;99.90;;;;;;5058161;28;20327;-56
2023/04/20 11:04:16;;;;;;;9.93;4.35;;;8.50;99.90;;;;;;5057704;28;20045;-57
2023/04/20 11:06:44;;;;;;;8.27;4.20;;;8.50;99.90;;;;;;5058512;28;20128;-57
2023/04/20 11:09:27;;;;;;;10.43;4.75;;;8.40;99.90;;;;;;5039059;28;20045;-57
2023/04/20 11:12:00;;;;;;;9.77;4.28;;;8.40;99.90;;;;;;5051885;28;20098;-57
2023/04/20 11:14:27;;;;;;;11.45;4.65;;;8.50;99.90;;;;;;5037755;28;20049;-56
2023/04/20 11:16:53;;;;;;;11.55;5.65;;;8.70;99.90;;;;;;5037412;28;20053;-57
2023/04/20 11:19:26;;;;;;;10.27;4.60;;;8.80;99.90;;;;;;5036644;28;20056;-57
2023/04/20 11:21:52;;;;;;;10.95;4.80;;;9.10;99.90;;;;;;5037002;28;20045;-57
2023/04/20 11:24:19;;;;;;;9.32;4.45;;;9.20;99.90;;;;;;5037595;28;20037;-56
2023/04/20 11:26:45;;;;;;;8.27;4.63;;;9.30;99.90;;;;;;5037471;28;20108;-57
2023/04/20 11:29:11;;;;;;;10.70;4.85;;;9.30;99.90;;;;;;5036453;28;20129;-57
2023/04/20 11:31:37;;;;;;;8.55;4.70;;;9.10;99.90;;;;;;5036975;28;20045;-56
2023/04/20 11:34:03;;;;;;;9.23;5.25;;;9.00;99.90;;;;;;5037479;28;20052;-57
2023/04/20 11:36:29;;;;;;;10.15;4.63;;;8.90;99.90;;;;;;5037450;28;20046;-58
2023/04/20 11:39:06;;;;;;;11.15;4.72;;;9.00;99.90;;;;;;5037515;28;20100;-56
2023/04/20 11:41:32;;;;;;;10.75;5.25;;;9.10;99.90;;;;;;5024070;28;20046;-57
2023/04/20 11:43:57;;;;;;;10.32;4.90;;;9.20;99.90;;;;;;5008314;28;20057;-57
2023/04/20 11:46:23;;;;;;;10.25;5.32;;;9.10;99.90;;;;;;5007331;28;20078;-57
2023/04/20 11:48:49;;;;;;;10.02;5.35;;;9.30;99.90;;;;;;5009846;28;20079;-56
2023/04/20 11:51:15;;;;;;;10.82;5.40;;;9.30;99.90;;;;;;5016614;28;20182;-57
2023/04/20 11:53:41;;;;;;;11.02;5.20;;;9.40;99.90;;;;;;5017768;28;20070;-56
2023/04/20 11:56:07;;;;;;;13.27;5.80;;;9.60;99.90;;;;;;5017399;28;20050;-57
2023/04/20 11:58:33;;;;;;;9.90;5.97;;;9.60;99.90;;;;;;5017778;28;20064;-57
2023/04/20 12:00:59;;;;;;;11.05;5.30;;;9.60;99.90;;;;;;5017678;28;20077;-56
2023/04/20 12:03:25;;;;;;;9.02;5.50;;;9.60;99.90;;;;;;5017503;28;20442;-57
2023/04/20 12:05:51;;;;;;;12.68;5.65;;;9.50;99.90;;;;;;5017236;28;20053;-57
2023/04/20 12:08:17;;;;;;;11.48;6.03;;;9.60;99.90;;;;;;5015036;28;20038;-57
2023/04/20 12:10:43;;;;;;;12.40;5.72;;;9.70;99.90;;;;;;5011123;28;20066;-57
2023/04/20 12:13:09;;;;;;;10.90;5.60;;;9.70;99.90;;;;;;5033659;28;20486;-57
2023/04/20 12:15:35;;;;;;;11.35;5.95;;;9.70;99.90;;;;;;5037374;28;20048;-57
2023/04/20 12:18:01;;;;;;;11.95;5.80;;;9.70;99.90;;;;;;5019377;28;20045;-56
2023/04/20 12:20:26;;;;;;;9.48;5.55;;;9.90;99.90;;;;;;5039112;28;20101;-57
2023/04/20 12:22:52;;;;;;;12.00;6.15;;;10.00;99.90;;;;;;5041107;28;20077;-57
2023/04/20 12:25:19;;;;;;;9.70;5.82;;;10.40;99.90;;;;;;5041164;28;20037;-57
2023/04/20 12:27:45;;;;;;;11.35;6.88;;;10.80;99.90;;;;;;5040519;28;20793;-56
2023/04/20 12:30:12;;;;;;;10.40;6.22;;;10.60;99.90;;;;;;5022423;28;20075;-57
2023/04/20 12:32:38;;;;;;;11.90;6.55;;;10.50;99.90;;;;;;5040961;28;20118;-56
2023/04/20 12:35:04;;;;;;;12.23;6.78;;;10.60;99.90;;;;;;5040263;28;20049;-56
2023/04/20 12:37:30;;;;;;;9.98;5.78;;;10.50;99.90;;;;;;5040122;28;20049;-56
2023/04/20 12:39:56;;;;;;;9.43;5.85;;;10.50;99.90;;;;;;5022356;28;20041;-57
2023/04/20 12:42:22;;;;;;;11.65;6.45;;;10.70;99.90;;;;;;5040392;28;20045;-57
2023/04/20 12:44:47;;;;;;;11.10;6.88;;;10.80;99.90;;;;;;5039684;28;20204;-57
2023/04/20 12:47:13;;;;;;;12.32;6.80;;;10.90;99.90;;;;;;5040277;28;20048;-56
2023/04/20 12:49:39;;;;;;;11.73;6.85;;;10.90;99.90;;;;;;5040372;28;20046;-57
2023/04/20 12:52:05;;;;;;;11.25;6.80;;;10.70;99.90;;;;;;5040181;28;20041;-57